sensor_id;sensor_type;location;lat;lon;timestamp;P1;durP1;ratioP1;P2;durP2;ratioP2
30337;SDS011;17143;51.888;5.408;2023-04-24T00:12:08;0.70;;;0.63;;
30337;SDS011;17143;51.888;5.408;2023-04-24T00:27:11;1.37;;;1.27;;
30337;SDS011;17143;51.888;5.408;2023-04-24T00:42:13;1.50;;;1.40;;
30337;SDS011;17143;51.888;5.408;2023-04-24T00:57:15;1.40;;;1.30;;
30337;SDS011;17143;51.888;5.408;2023-04-24T01:12:17;0.40;;;0.40;;
30337;SDS011;17143;51.888;5.408;2023-04-24T01:27:20;0.77;;;0.77;;
30337;SDS011;17143;51.888;5.408;2023-04-24T01:42:22;1.87;;;1.67;;
30337;SDS011;17143;51.888;5.408;2023-04-24T01:57:24;3.23;;;2.40;;
30337;SDS011;17143;51.888;5.408;2023-04-24T02:12:27;3.30;;;2.60;;
30337;SDS011;17143;51.888;5.408;2023-04-24T02:27:29;2.17;;;1.50;;
30337;SDS011;17143;51.888;5.408;2023-04-24T02:42:32;2.97;;;2.23;;
30337;SDS011;17143;51.888;5.408;2023-04-24T02:57:34;3.03;;;2.43;;
30337;SDS011;17143;51.888;5.408;2023-04-24T03:12:36;3.57;;;3.07;;
30337;SDS011;17143;51.888;5.408;2023-04-24T03:27:38;4.10;;;2.73;;
30337;SDS011;17143;51.888;5.408;2023-04-24T03:42:55;4.43;;;3.37;;
30337;SDS011;17143;51.888;5.408;2023-04-24T03:57:57;6.50;;;3.63;;
30337;SDS011;17143;51.888;5.408;2023-04-24T04:13:00;6.87;;;3.67;;
30337;SDS011;17143;51.888;5.408;2023-04-24T04:28:02;3.57;;;2.87;;
30337;SDS011;17143;51.888;5.408;2023-04-24T04:43:05;2.23;;;1.63;;
30337;SDS011;17143;51.888;5.408;2023-04-24T04:58:14;2.07;;;1.20;;
30337;SDS011;17143;51.888;5.408;2023-04-24T05:13:16;2.67;;;1.57;;
30337;SDS011;17143;51.888;5.408;2023-04-24T05:28:19;0.40;;;0.30;;
30337;SDS011;17143;51.888;5.408;2023-04-24T05:43:27;1.13;;;0.30;;
30337;SDS011;17143;51.888;5.408;2023-04-24T05:58:29;0.20;;;0.13;;
30337;SDS011;17143;51.888;5.408;2023-04-24T06:13:31;0.97;;;0.20;;
30337;SDS011;17143;51.888;5.408;2023-04-24T06:28:54;1.17;;;0.27;;
30337;SDS011;17143;51.888;5.408;2023-04-24T06:43:56;0.60;;;0.50;;
30337;SDS011;17143;51.888;5.408;2023-04-24T06:58:58;1.93;;;0.70;;
30337;SDS011;17143;51.888;5.408;2023-04-24T07:14:00;3.27;;;1.97;;
30337;SDS011;17143;51.888;5.408;2023-04-24T07:29:02;2.20;;;2.00;;
30337;SDS011;17143;51.888;5.408;2023-04-24T07:44:04;5.53;;;1.80;;
30337;SDS011;17143;51.888;5.408;2023-04-24T07:59:06;3.23;;;1.97;;
30337;SDS011;17143;51.888;5.408;2023-04-24T08:14:08;4.57;;;1.50;;
30337;SDS011;17143;51.888;5.408;2023-04-24T08:29:10;2.30;;;1.27;;
30337;SDS011;17143;51.888;5.408;2023-04-24T08:44:12;2.33;;;1.10;;
30337;SDS011;17143;51.888;5.408;2023-04-24T08:59:14;1.20;;;0.70;;
30337;SDS011;17143;51.888;5.408;2023-04-24T09:14:17;3.40;;;1.53;;
30337;SDS011;17143;51.888;5.408;2023-04-24T09:29:20;4.20;;;1.23;;
30337;SDS011;17143;51.888;5.408;2023-04-24T09:44:22;4.60;;;0.90;;
30337;SDS011;17143;51.888;5.408;2023-04-24T09:59:25;1.07;;;0.80;;
30337;SDS011;17143;51.888;5.408;2023-04-24T10:14:27;2.33;;;0.60;;
30337;SDS011;17143;51.888;5.408;2023-04-24T10:29:31;0.63;;;0.53;;
30337;SDS011;17143;51.888;5.408;2023-04-24T10:44:36;1.33;;;0.57;;
30337;SDS011;17143;51.888;5.408;2023-04-24T10:59:39;1.87;;;0.60;;
30337;SDS011;17143;51.888;5.408;2023-04-24T11:30:03;1.90;;;0.60;;
30337;SDS011;17143;51.888;5.408;2023-04-24T11:45:10;0.73;;;0.50;;
30337;SDS011;17143;51.888;5.408;2023-04-24T12:00:16;0.30;;;0.30;;
30337;SDS011;17143;51.888;5.408;2023-04-24T12:15:20;0.90;;;0.70;;
30337;SDS011;17143;51.888;5.408;2023-04-24T12:30:26;3.17;;;0.57;;
30337;SDS011;17143;51.888;5.408;2023-04-24T12:45:29;2.00;;;0.53;;
30337;SDS011;17143;51.888;5.408;2023-04-24T13:00:31;0.67;;;0.40;;
30337;SDS011;17143;51.888;5.408;2023-04-24T13:15:33;0.90;;;0.47;;
30337;SDS011;17143;51.888;5.408;2023-04-24T13:30:35;2.93;;;0.87;;
30337;SDS011;17143;51.888;5.408;2023-04-24T13:45:38;2.00;;;1.27;;
30337;SDS011;17143;51.888;5.408;2023-04-24T14:00:40;1.70;;;0.83;;
30337;SDS011;17143;51.888;5.408;2023-04-24T14:15:42;3.10;;;0.93;;
30337;SDS011;17143;51.888;5.408;2023-04-24T14:30:44;5.17;;;0.93;;
30337;SDS011;17143;51.888;5.408;2023-04-24T14:45:46;5.13;;;0.90;;
30337;SDS011;17143;51.888;5.408;2023-04-24T15:00:48;3.43;;;1.40;;
30337;SDS011;17143;51.888;5.408;2023-04-24T15:15:50;2.50;;;1.10;;
30337;SDS011;17143;51.888;5.408;2023-04-24T15:30:52;2.70;;;1.00;;
30337;SDS011;17143;51.888;5.408;2023-04-24T15:45:54;3.77;;;1.20;;
30337;SDS011;17143;51.888;5.408;2023-04-24T16:00:57;4.63;;;1.50;;
30337;SDS011;17143;51.888;5.408;2023-04-24T16:15:59;7.03;;;2.13;;
30337;SDS011;17143;51.888;5.408;2023-04-24T16:31:01;4.40;;;1.50;;
30337;SDS011;17143;51.888;5.408;2023-04-24T16:46:03;3.97;;;2.23;;
30337;SDS011;17143;51.888;5.408;2023-04-24T17:01:05;2.53;;;1.47;;
30337;SDS011;17143;51.888;5.408;2023-04-24T17:16:07;7.47;;;2.03;;
30337;SDS011;17143;51.888;5.408;2023-04-24T17:31:09;5.93;;;1.70;;
30337;SDS011;17143;51.888;5.408;2023-04-24T17:46:11;3.33;;;1.50;;
30337;SDS011;17143;51.888;5.408;2023-04-24T18:01:13;3.77;;;1.50;;
30337;SDS011;17143;51.888;5.408;2023-04-24T18:16:15;7.47;;;1.83;;
30337;SDS011;17143;51.888;5.408;2023-04-24T18:31:17;6.87;;;2.40;;
30337;SDS011;17143;51.888;5.408;2023-04-24T18:46:19;3.47;;;1.60;;
30337;SDS011;17143;51.888;5.408;2023-04-24T19:01:21;8.10;;;2.20;;
30337;SDS011;17143;51.888;5.408;2023-04-24T19:16:23;4.70;;;1.87;;
30337;SDS011;17143;51.888;5.408;2023-04-24T19:31:25;4.67;;;1.83;;
30337;SDS011;17143;51.888;5.408;2023-04-24T19:46:28;6.13;;;2.50;;
30337;SDS011;17143;51.888;5.408;2023-04-24T20:01:30;2.97;;;0.97;;
30337;SDS011;17143;51.888;5.408;2023-04-24T20:16:32;2.77;;;1.03;;
30337;SDS011;17143;51.888;5.408;2023-04-24T20:31:34;1.47;;;0.70;;
30337;SDS011;17143;51.888;5.408;2023-04-24T20:46:36;0.90;;;0.67;;
30337;SDS011;17143;51.888;5.408;2023-04-24T21:01:38;1.23;;;0.60;;
30337;SDS011;17143;51.888;5.408;2023-04-24T21:16:40;2.73;;;0.67;;
30337;SDS011;17143;51.888;5.408;2023-04-24T21:31:43;1.00;;;0.67;;
30337;SDS011;17143;51.888;5.408;2023-04-24T21:46:45;1.27;;;0.73;;
30337;SDS011;17143;51.888;5.408;2023-04-24T22:01:47;2.77;;;0.90;;
30337;SDS011;17143;51.888;5.408;2023-04-24T22:16:48;1.93;;;0.60;;
30337;SDS011;17143;51.888;5.408;2023-04-24T22:31:50;1.67;;;0.80;;
30337;SDS011;17143;51.888;5.408;2023-04-24T22:46:53;1.90;;;0.60;;
30337;SDS011;17143;51.888;5.408;2023-04-24T23:01:54;0.87;;;0.80;;
30337;SDS011;17143;51.888;5.408;2023-04-24T23:16:56;3.20;;;1.07;;
30337;SDS011;17143;51.888;5.408;2023-04-24T23:31:58;2.40;;;1.00;;
30337;SDS011;17143;51.888;5.408;2023-04-24T23:47:00;5.40;;;1.30;;
